createdAt,value
2023-02-23T00:01:42.463Z,2.85
2023-02-23T00:04:12.559Z,4.05
2023-02-23T00:06:42.597Z,1.67
2023-02-23T00:09:22.921Z,1.70
2023-02-23T00:11:53.261Z,3.15
2023-02-23T00:14:20.300Z,1.08
2023-02-23T00:16:46.806Z,1.35
2023-02-23T00:19:16.186Z,1.38
2023-02-23T00:21:43.379Z,1.33
2023-02-23T00:24:14.738Z,4.63
2023-02-23T00:26:45.504Z,3.70
2023-02-23T00:29:23.544Z,1.65
2023-02-23T00:31:51.741Z,1.58
2023-02-23T00:34:23.826Z,2.55
2023-02-23T00:36:54.277Z,3.95
2023-02-23T00:39:23.167Z,6.30
2023-02-23T00:41:52.372Z,1.80
2023-02-23T00:44:21.255Z,1.40
2023-02-23T00:46:51.075Z,1.98
2023-02-23T00:49:19.442Z,5.13
2023-02-23T00:51:46.904Z,5.88
2023-02-23T00:54:14.566Z,2.03
2023-02-23T00:56:42.420Z,2.58
2023-02-23T00:59:12.063Z,1.65
2023-02-23T01:01:39.440Z,5.60
2023-02-23T01:04:07.350Z,1.83
2023-02-23T01:06:37.294Z,2.03
2023-02-23T01:09:08.888Z,7.72
2023-02-23T01:11:35.518Z,1.92
2023-02-23T01:14:02.439Z,2.08
2023-02-23T01:16:32.394Z,3.65
2023-02-23T01:19:01.350Z,3.92
2023-02-23T01:21:37.352Z,2.92
2023-02-23T01:24:04.702Z,3.42
2023-02-23T01:26:34.289Z,5.80
2023-02-23T01:29:09.590Z,3.30
2023-02-23T01:31:38.873Z,2.05
2023-02-23T01:34:06.535Z,3.17
2023-02-23T01:36:36.490Z,6.15
2023-02-23T01:39:06.341Z,6.88
2023-02-23T01:41:34.326Z,2.40
2023-02-23T01:44:06.969Z,2.92
2023-02-23T01:46:39.258Z,3.13
2023-02-23T01:49:10.519Z,5.32
2023-02-23T01:51:45.114Z,3.78
2023-02-23T01:54:16.267Z,2.65
2023-02-23T01:56:58.044Z,3.17
2023-02-23T01:59:30.247Z,10.68
2023-02-23T02:01:57.029Z,3.55
2023-02-23T02:04:25.358Z,3.00
2023-02-23T02:06:55.411Z,3.15
2023-02-23T02:09:28.106Z,2.80
2023-02-23T02:11:54.635Z,2.67
2023-02-23T02:14:29.478Z,4.13
2023-02-23T02:17:02.409Z,3.00
2023-02-23T02:19:59.212Z,4.72
2023-02-23T02:22:48.861Z,4.80
2023-02-23T02:25:41.078Z,9.07
2023-02-23T02:28:22.298Z,2.53
2023-02-23T02:31:26.333Z,13.52
2023-02-23T02:34:06.785Z,4.68
2023-02-23T02:37:03.223Z,3.80
2023-02-23T02:39:45.168Z,5.18
2023-02-23T02:42:19.177Z,3.40
2023-02-23T02:44:54.806Z,3.60
2023-02-23T02:48:06.644Z,6.55
2023-02-23T02:50:40.362Z,4.65
2023-02-23T02:53:12.112Z,3.85
2023-02-23T02:55:43.792Z,3.38
2023-02-23T02:58:12.541Z,3.15
2023-02-23T03:01:00.624Z,5.60
2023-02-23T03:04:06.791Z,2.83
2023-02-23T03:06:56.119Z,2.72
2023-02-23T03:10:02.190Z,3.67
2023-02-23T03:12:56.574Z,5.10
2023-02-23T03:16:38.792Z,4.88
2023-02-23T03:19:53.090Z,7.38
2023-02-23T03:22:49.653Z,9.18
2023-02-23T03:25:50.427Z,3.88
2023-02-23T03:28:41.080Z,4.53
2023-02-23T03:31:34.234Z,5.80
2023-02-23T03:34:57.988Z,7.57
2023-02-23T03:37:52.417Z,7.25
2023-02-23T03:40:40.548Z,9.25
2023-02-23T03:43:32.151Z,13.45
2023-02-23T03:46:23.034Z,8.52
2023-02-23T03:49:09.858Z,7.43
2023-02-23T03:51:58.012Z,11.48
2023-02-23T03:54:48.898Z,10.52
2023-02-23T03:57:36.972Z,15.90
2023-02-23T04:00:26.856Z,11.18
2023-02-23T04:03:13.616Z,10.15
2023-02-23T04:06:00.466Z,10.23
2023-02-23T04:08:55.536Z,14.35
2023-02-23T04:11:49.917Z,11.77
2023-02-23T04:14:26.830Z,10.77
2023-02-23T04:16:57.389Z,8.85
2023-02-23T04:19:28.300Z,10.90
2023-02-23T04:21:55.062Z,10.60
2023-02-23T04:24:24.379Z,9.38
2023-02-23T04:26:52.045Z,8.15
2023-02-23T04:29:19.120Z,9.02
2023-02-23T04:31:46.116Z,7.50
2023-02-23T04:34:12.762Z,8.38
2023-02-23T04:36:39.505Z,9.13
2023-02-23T04:39:06.176Z,12.05
2023-02-23T04:41:32.729Z,10.90
2023-02-23T04:43:59.203Z,10.63
2023-02-23T04:46:25.955Z,11.13
2023-02-23T04:48:54.550Z,14.35
2023-02-23T04:51:21.146Z,11.82
2023-02-23T04:53:47.758Z,12.60
2023-02-23T04:56:14.656Z,15.45
2023-02-23T04:58:41.905Z,13.73
2023-02-23T05:01:09.855Z,13.13
2023-02-23T05:03:36.603Z,15.15
2023-02-23T05:06:03.202Z,16.67
2023-02-23T05:08:30.148Z,13.55
2023-02-23T05:10:56.654Z,12.70
2023-02-23T05:13:26.574Z,15.30
2023-02-23T05:15:57.922Z,13.38
2023-02-23T05:18:28.058Z,11.07
2023-02-23T05:21:02.265Z,11.65
2023-02-23T05:23:28.783Z,12.93
2023-02-23T05:26:00.002Z,18.98
2023-02-23T05:28:29.290Z,12.90
2023-02-23T05:30:56.776Z,12.90
2023-02-23T05:33:23.314Z,14.02
2023-02-23T05:35:49.815Z,16.58
2023-02-23T05:38:16.488Z,12.75
2023-02-23T05:40:43.005Z,17.95
2023-02-23T05:43:09.524Z,18.30
2023-02-23T05:45:41.413Z,12.80
2023-02-23T05:48:09.747Z,17.67
2023-02-23T05:50:36.284Z,12.25
2023-02-23T05:53:03.095Z,15.65
2023-02-23T05:55:29.834Z,11.30
2023-02-23T05:57:59.160Z,15.55
2023-02-23T06:00:27.818Z,13.23
2023-02-23T06:02:57.238Z,15.55
2023-02-23T06:05:23.776Z,16.13
2023-02-23T06:07:50.480Z,17.45
2023-02-23T06:10:17.519Z,15.27
2023-02-23T06:12:45.100Z,13.13
2023-02-23T06:15:12.105Z,14.38
2023-02-23T06:17:38.598Z,12.48
2023-02-23T06:20:07.121Z,17.02
2023-02-23T06:22:33.735Z,16.92
2023-02-23T06:25:00.255Z,18.20
2023-02-23T06:27:29.837Z,16.70
2023-02-23T06:29:57.483Z,17.85
2023-02-23T06:32:24.014Z,18.45
2023-02-23T06:34:50.544Z,17.58
2023-02-23T06:37:17.033Z,13.60
2023-02-23T06:39:43.576Z,14.82
2023-02-23T06:42:10.063Z,15.68
2023-02-23T06:44:37.241Z,12.50
2023-02-23T06:47:06.165Z,17.75
2023-02-23T06:49:32.800Z,18.13
2023-02-23T06:51:59.605Z,16.92
2023-02-23T06:54:29.181Z,15.80
2023-02-23T06:56:57.593Z,20.85
2023-02-23T06:59:26.762Z,20.23
2023-02-23T07:01:53.354Z,18.38
2023-02-23T07:04:19.901Z,16.20
2023-02-23T07:06:46.433Z,14.77
2023-02-23T07:09:12.916Z,18.17
2023-02-23T07:11:41.142Z,17.67
2023-02-23T07:14:21.426Z,16.00
2023-02-23T07:16:53.154Z,13.95
2023-02-23T07:19:19.690Z,16.23
2023-02-23T07:21:46.200Z,28.38
2023-02-23T07:24:12.991Z,12.68
2023-02-23T07:26:41.008Z,15.95
2023-02-23T07:29:07.573Z,16.35
2023-02-23T07:31:34.194Z,16.55
2023-02-23T07:34:00.732Z,18.77
2023-02-23T07:36:27.744Z,15.48
2023-02-23T07:38:54.345Z,26.02
2023-02-23T07:41:22.195Z,16.55
2023-02-23T07:43:48.977Z,20.00
2023-02-23T07:46:16.382Z,22.63
2023-02-23T07:48:45.081Z,19.60
2023-02-23T07:51:13.366Z,17.73
2023-02-23T07:53:40.329Z,19.20
2023-02-23T07:56:08.733Z,18.58
2023-02-23T07:58:35.303Z,18.40
2023-02-23T08:01:02.348Z,20.05
2023-02-23T08:03:28.954Z,15.23
2023-02-23T08:05:56.832Z,25.10
2023-02-23T08:08:23.537Z,15.70
2023-02-23T08:10:50.158Z,16.63
2023-02-23T08:13:17.215Z,17.48
2023-02-23T08:15:44.190Z,19.55
2023-02-23T08:18:11.431Z,17.80
2023-02-23T08:20:38.216Z,21.08
2023-02-23T08:23:04.914Z,16.83
2023-02-23T08:25:31.665Z,18.52
2023-02-23T08:27:59.654Z,21.23
2023-02-23T08:30:30.188Z,15.75
2023-02-23T08:33:01.564Z,17.45
2023-02-23T08:35:31.062Z,15.88
2023-02-23T08:37:58.458Z,18.20
2023-02-23T08:40:27.406Z,14.68
2023-02-23T08:42:53.887Z,20.42
2023-02-23T08:45:20.738Z,20.70
2023-02-23T08:47:47.223Z,14.85
2023-02-23T08:50:14.410Z,19.42
2023-02-23T08:52:41.089Z,14.93
2023-02-23T08:55:08.047Z,15.88
2023-02-23T08:57:35.874Z,21.38
2023-02-23T09:00:02.910Z,13.55
2023-02-23T09:02:29.487Z,18.55
2023-02-23T09:04:59.597Z,17.08
2023-02-23T09:07:30.648Z,15.13
2023-02-23T09:10:00.172Z,17.85
2023-02-23T09:12:29.603Z,23.95
2023-02-23T09:14:57.947Z,14.75
2023-02-23T09:17:30.422Z,15.57
2023-02-23T09:19:56.954Z,16.85
2023-02-23T09:22:23.501Z,14.82
2023-02-23T09:24:50.041Z,14.00
2023-02-23T09:27:16.634Z,17.35
2023-02-23T09:29:43.928Z,16.65
2023-02-23T09:32:11.903Z,18.55
2023-02-23T09:34:38.518Z,18.73
2023-02-23T09:37:05.496Z,12.88
2023-02-23T09:39:38.514Z,16.35
2023-02-23T09:42:15.687Z,13.60
2023-02-23T09:44:51.981Z,12.48
2023-02-23T09:47:51.686Z,15.73
2023-02-23T09:50:27.775Z,15.27
2023-02-23T09:53:10.578Z,17.50
2023-02-23T09:55:40.919Z,15.73
2023-02-23T09:58:27.848Z,15.75
2023-02-23T10:01:09.904Z,16.27
2023-02-23T10:03:40.351Z,16.70
2023-02-23T10:06:11.306Z,21.35
2023-02-23T10:08:51.146Z,18.85
2023-02-23T10:12:05.734Z,13.30
2023-02-23T10:14:35.219Z,18.25
2023-02-23T10:17:26.923Z,19.15
2023-02-23T10:20:05.450Z,15.05
2023-02-23T10:22:35.542Z,17.75
2023-02-23T10:25:06.713Z,14.00
2023-02-23T10:27:41.913Z,14.48
2023-02-23T10:30:29.299Z,13.18
2023-02-23T10:33:22.522Z,14.30
2023-02-23T10:35:52.401Z,10.82
2023-02-23T10:38:20.523Z,16.05
2023-02-23T10:40:53.604Z,11.63
2023-02-23T10:43:20.161Z,16.40
2023-02-23T10:45:49.091Z,18.05
2023-02-23T10:48:39.982Z,13.85
2023-02-23T10:51:14.410Z,12.57
2023-02-23T10:53:40.903Z,13.77
2023-02-23T10:56:17.196Z,14.35
2023-02-23T10:58:47.047Z,9.95
2023-02-23T11:01:16.074Z,13.77
2023-02-23T11:04:05.442Z,10.32
2023-02-23T11:06:42.290Z,8.77
2023-02-23T11:09:45.009Z,15.77
2023-02-23T11:12:23.050Z,12.60
2023-02-23T11:14:54.369Z,14.40
2023-02-23T11:17:33.961Z,14.80
2023-02-23T11:20:23.078Z,11.95
2023-02-23T11:22:52.299Z,11.52
2023-02-23T11:25:30.427Z,11.32
2023-02-23T11:27:58.897Z,14.98
2023-02-23T11:30:37.152Z,14.40
2023-02-23T11:33:12.013Z,13.95
2023-02-23T11:35:39.035Z,15.35
2023-02-23T11:38:22.230Z,12.52
2023-02-23T11:41:00.597Z,12.93
2023-02-23T11:43:30.047Z,12.70
2023-02-23T11:46:00.972Z,12.77
2023-02-23T11:48:36.649Z,11.15
2023-02-23T11:51:03.441Z,17.77
2023-02-23T11:53:44.581Z,8.80
2023-02-23T11:56:12.597Z,14.52
2023-02-23T11:58:49.884Z,15.48
2023-02-23T12:01:23.508Z,6.95
2023-02-23T12:03:57.123Z,12.23
2023-02-23T12:06:35.984Z,9.57
2023-02-23T12:09:18.584Z,15.30
2023-02-23T12:11:51.960Z,9.52
2023-02-23T12:14:54.693Z,11.02
2023-02-23T12:17:29.832Z,14.20
2023-02-23T12:20:43.717Z,6.25
2023-02-23T12:23:17.052Z,12.52
2023-02-23T12:26:01.559Z,9.60
2023-02-23T12:28:51.764Z,8.30
2023-02-23T12:31:42.388Z,7.60
2023-02-23T12:34:21.313Z,10.88
2023-02-23T12:36:58.359Z,7.85
2023-02-23T12:39:38.952Z,15.40
2023-02-23T12:42:43.046Z,13.55
2023-02-23T12:45:28.121Z,8.57
2023-02-23T12:48:06.219Z,18.45
2023-02-23T12:50:40.737Z,13.65
2023-02-23T12:53:12.626Z,14.25
2023-02-23T12:55:59.788Z,6.60
2023-02-23T12:58:30.098Z,7.65
2023-02-23T13:01:04.948Z,13.30
2023-02-23T13:03:58.611Z,15.65
2023-02-23T13:06:59.546Z,10.40
2023-02-23T13:09:47.650Z,8.23
2023-02-23T13:12:33.029Z,8.57
2023-02-23T13:15:11.663Z,9.60
2023-02-23T13:17:49.616Z,7.22
2023-02-23T13:20:38.947Z,11.05
2023-02-23T13:23:09.598Z,12.23
2023-02-23T13:25:51.255Z,15.98
2023-02-23T13:28:42.571Z,14.05
2023-02-23T13:31:29.441Z,12.38
2023-02-23T13:33:59.682Z,9.88
2023-02-23T13:36:32.235Z,7.85
2023-02-23T13:39:28.515Z,10.68
2023-02-23T13:42:36.786Z,7.10
2023-02-23T13:45:31.572Z,7.45
2023-02-23T13:48:18.765Z,9.15
2023-02-23T13:50:51.549Z,10.43
2023-02-23T13:53:38.342Z,10.40
2023-02-23T13:56:08.847Z,11.75
2023-02-23T13:58:35.776Z,13.10
2023-02-23T14:01:10.490Z,9.85
2023-02-23T14:03:43.641Z,10.32
2023-02-23T14:06:14.757Z,10.88
2023-02-23T14:08:45.057Z,8.90
2023-02-23T14:11:30.154Z,6.60
2023-02-23T14:14:04.153Z,10.30
2023-02-23T14:16:31.871Z,6.97
2023-02-23T14:19:04.539Z,9.48
2023-02-23T14:21:43.005Z,11.65
2023-02-23T14:24:25.708Z,6.50
2023-02-23T14:27:06.546Z,12.30
2023-02-23T14:30:05.586Z,7.70
2023-02-23T14:32:39.289Z,11.05
2023-02-23T14:35:19.247Z,10.82
2023-02-23T14:37:56.408Z,15.50
2023-02-23T14:40:30.655Z,11.18
2023-02-23T14:42:59.146Z,9.23
2023-02-23T14:45:28.791Z,8.13
2023-02-23T14:48:02.948Z,9.88
2023-02-23T14:50:42.057Z,13.60
2023-02-23T14:53:19.700Z,10.95
2023-02-23T14:55:49.790Z,10.10
2023-02-23T14:58:26.358Z,9.13
2023-02-23T15:00:52.853Z,16.65
2023-02-23T15:03:19.544Z,11.68
2023-02-23T15:05:52.718Z,10.75
2023-02-23T15:08:23.206Z,13.57
2023-02-23T15:11:01.599Z,14.82
2023-02-23T15:13:39.768Z,14.40
2023-02-23T15:16:32.272Z,21.00
2023-02-23T15:19:02.892Z,19.40
2023-02-23T15:21:34.586Z,17.67
2023-02-23T15:24:11.100Z,18.58
2023-02-23T15:26:40.214Z,24.50
2023-02-23T15:29:25.670Z,16.17
2023-02-23T15:31:55.323Z,21.95
2023-02-23T15:34:26.890Z,14.55
2023-02-23T15:36:59.676Z,19.88
2023-02-23T15:39:42.983Z,15.10
2023-02-23T15:42:18.839Z,15.05
2023-02-23T15:44:45.894Z,17.73
2023-02-23T15:47:28.442Z,15.85
2023-02-23T15:50:18.120Z,9.77
2023-02-23T15:52:51.375Z,12.55
2023-02-23T15:55:24.388Z,13.73
2023-02-23T15:57:58.922Z,52.22
2023-02-23T16:00:36.590Z,62.88
2023-02-23T16:03:08.021Z,24.48
2023-02-23T16:05:46.594Z,20.42
2023-02-23T16:08:23.730Z,13.55
2023-02-23T16:10:57.470Z,9.75
2023-02-23T16:13:24.208Z,10.73
2023-02-23T16:15:54.161Z,9.68
2023-02-23T16:18:28.940Z,11.02
2023-02-23T16:20:59.620Z,12.77
2023-02-23T16:23:36.091Z,13.65
2023-02-23T16:26:15.982Z,10.45
2023-02-23T16:28:45.939Z,15.50
2023-02-23T16:31:14.108Z,13.25
2023-02-23T16:33:42.015Z,13.38
2023-02-23T16:36:20.363Z,19.20
2023-02-23T16:38:52.853Z,14.93
2023-02-23T16:41:22.028Z,19.10
2023-02-23T16:43:50.148Z,19.67
2023-02-23T16:46:18.365Z,16.50
2023-02-23T16:48:45.336Z,17.63
2023-02-23T16:51:17.402Z,20.60
2023-02-23T16:53:44.514Z,21.73
2023-02-23T16:56:22.024Z,26.02
2023-02-23T16:58:58.074Z,22.83
2023-02-23T17:01:24.784Z,14.63
2023-02-23T17:03:53.898Z,15.27
2023-02-23T17:06:22.552Z,11.32
2023-02-23T17:08:57.600Z,14.38
2023-02-23T17:11:25.172Z,19.40
2023-02-23T17:13:51.620Z,12.13
2023-02-23T17:16:18.498Z,14.38
2023-02-23T17:18:45.283Z,14.25
2023-02-23T17:21:14.296Z,15.18
2023-02-23T17:23:51.209Z,14.02
2023-02-23T17:26:22.461Z,11.82
2023-02-23T17:28:52.173Z,15.77
2023-02-23T17:31:23.549Z,16.17
2023-02-23T17:33:52.623Z,16.58
2023-02-23T17:36:20.122Z,11.10
2023-02-23T17:38:46.660Z,16.67
2023-02-23T17:41:16.605Z,25.70
2023-02-23T17:43:43.408Z,15.68
2023-02-23T17:46:29.317Z,22.40
2023-02-23T17:48:56.487Z,11.15
2023-02-23T17:51:23.336Z,15.23
2023-02-23T17:53:53.191Z,15.10
2023-02-23T17:56:23.797Z,11.88
2023-02-23T17:58:50.521Z,12.85
2023-02-23T18:01:17.935Z,13.15
2023-02-23T18:03:49.836Z,12.73
2023-02-23T18:06:16.970Z,12.88
2023-02-23T18:08:47.580Z,12.10
2023-02-23T18:11:16.420Z,13.85
2023-02-23T18:13:42.926Z,12.23
2023-02-23T18:16:10.730Z,18.63
2023-02-23T18:18:43.676Z,23.05
2023-02-23T18:21:22.018Z,14.15
2023-02-23T18:23:49.916Z,23.63
2023-02-23T18:26:22.551Z,16.63
2023-02-23T18:28:51.105Z,15.32
2023-02-23T18:31:21.565Z,21.92
2023-02-23T18:33:56.509Z,15.18
2023-02-23T18:36:29.818Z,17.17
2023-02-23T18:38:58.168Z,18.33
2023-02-23T18:41:30.989Z,20.48
2023-02-23T18:43:59.700Z,21.55
2023-02-23T18:46:26.642Z,18.83
2023-02-23T18:48:54.769Z,17.20
2023-02-23T18:51:22.846Z,18.30
2023-02-23T18:53:51.949Z,15.23
2023-02-23T18:56:25.190Z,25.63
2023-02-23T18:58:58.162Z,22.05
2023-02-23T19:01:28.099Z,21.83
2023-02-23T19:03:57.842Z,15.60
2023-02-23T19:06:25.709Z,24.80
2023-02-23T19:08:55.908Z,19.77
2023-02-23T19:11:25.669Z,21.08
2023-02-23T19:13:53.749Z,13.90
2023-02-23T19:16:21.306Z,15.55
2023-02-23T19:18:50.733Z,16.55
2023-02-23T19:21:22.662Z,19.55
2023-02-23T19:23:50.753Z,18.23
2023-02-23T19:26:18.486Z,16.83
2023-02-23T19:28:48.594Z,20.77
2023-02-23T19:31:20.755Z,15.77
2023-02-23T19:33:49.758Z,23.70
2023-02-23T19:36:19.603Z,19.27
2023-02-23T19:38:46.165Z,24.40
2023-02-23T19:41:18.428Z,16.80
2023-02-23T19:43:45.963Z,21.85
2023-02-23T19:46:16.301Z,26.35
2023-02-23T19:48:45.656Z,19.70
2023-02-23T19:51:14.852Z,16.08
2023-02-23T19:53:44.637Z,30.35
2023-02-23T19:56:13.412Z,20.58
2023-02-23T19:58:46.620Z,26.15
2023-02-23T20:01:16.645Z,20.70
2023-02-23T20:03:45.128Z,22.13
2023-02-23T20:06:16.314Z,22.00
2023-02-23T20:08:44.638Z,21.63
2023-02-23T20:11:15.520Z,21.20
2023-02-23T20:13:42.313Z,24.27
2023-02-23T20:16:14.268Z,26.80
2023-02-23T20:18:41.677Z,23.77
2023-02-23T20:21:12.429Z,18.70
2023-02-23T20:23:41.636Z,24.95
2023-02-23T20:26:15.829Z,20.27
2023-02-23T20:28:42.893Z,18.65
2023-02-23T20:31:18.092Z,14.00
2023-02-23T20:33:44.797Z,15.88
2023-02-23T20:36:14.493Z,15.48
2023-02-23T20:38:43.932Z,13.15
2023-02-23T20:41:13.476Z,29.92
2023-02-23T20:43:44.048Z,19.52
2023-02-23T20:46:15.609Z,17.30
2023-02-23T20:48:42.746Z,14.27
2023-02-23T20:51:14.950Z,20.55
2023-02-23T20:53:47.124Z,20.75
2023-02-23T20:56:16.615Z,18.40
2023-02-23T20:58:43.893Z,16.75
2023-02-23T21:01:21.382Z,22.35
2023-02-23T21:03:52.450Z,18.90
2023-02-23T21:06:20.707Z,17.48
2023-02-23T21:08:50.286Z,23.50
2023-02-23T21:11:19.780Z,18.33
2023-02-23T21:13:46.707Z,18.70
2023-02-23T21:16:15.625Z,24.63
2023-02-23T21:18:42.713Z,25.13
2023-02-23T21:21:11.689Z,18.15
2023-02-23T21:23:41.055Z,18.95
2023-02-23T21:26:07.606Z,20.88
2023-02-23T21:28:35.462Z,19.02
2023-02-23T21:31:02.205Z,22.85
2023-02-23T21:33:28.762Z,17.27
2023-02-23T21:35:58.700Z,22.40
2023-02-23T21:38:25.674Z,16.52
2023-02-23T21:40:55.395Z,21.00
2023-02-23T21:43:23.064Z,17.48
2023-02-23T21:45:49.604Z,20.27
2023-02-23T21:48:16.177Z,21.95
2023-02-23T21:50:45.335Z,17.27
2023-02-23T21:53:16.162Z,19.80
2023-02-23T21:55:45.535Z,18.75
2023-02-23T21:58:15.292Z,16.00
2023-02-23T22:00:44.556Z,22.67
2023-02-23T22:03:13.878Z,19.33
2023-02-23T22:05:40.395Z,19.20
2023-02-23T22:08:06.957Z,22.30
2023-02-23T22:10:33.608Z,16.42
2023-02-23T22:13:01.033Z,18.50
2023-02-23T22:15:27.914Z,12.60
2023-02-23T22:17:55.512Z,18.42
2023-02-23T22:20:22.405Z,19.33
2023-02-23T22:22:50.472Z,25.48
2023-02-23T22:25:19.697Z,17.83
2023-02-23T22:27:46.656Z,17.77
2023-02-23T22:30:15.765Z,12.63
2023-02-23T22:32:45.233Z,14.27
2023-02-23T22:35:11.811Z,20.30
2023-02-23T22:37:39.224Z,19.10
2023-02-23T22:40:18.842Z,21.80
2023-02-23T22:42:49.284Z,20.63
2023-02-23T22:45:16.771Z,20.05
2023-02-23T22:47:45.676Z,22.73
2023-02-23T22:50:16.321Z,19.55
2023-02-23T22:52:43.097Z,22.75
2023-02-23T22:55:09.959Z,22.67
2023-02-23T22:57:36.642Z,20.48
2023-02-23T23:00:07.111Z,24.10
2023-02-23T23:02:33.635Z,20.05
2023-02-23T23:05:01.785Z,25.67
2023-02-23T23:07:29.111Z,19.05
2023-02-23T23:09:55.644Z,19.50
2023-02-23T23:12:22.242Z,21.20
2023-02-23T23:14:48.774Z,19.88
2023-02-23T23:17:18.103Z,18.90
2023-02-23T23:19:45.010Z,21.30
2023-02-23T23:22:14.501Z,13.85
2023-02-23T23:24:48.073Z,19.77
2023-02-23T23:27:14.727Z,22.27
2023-02-23T23:29:45.651Z,19.63
2023-02-23T23:32:27.499Z,23.27
2023-02-23T23:34:57.276Z,23.38
2023-02-23T23:37:23.818Z,19.33
2023-02-23T23:39:59.200Z,22.20
2023-02-23T23:42:26.575Z,17.33
2023-02-23T23:44:56.534Z,20.13
2023-02-23T23:47:23.232Z,22.65
2023-02-23T23:49:49.993Z,18.52
2023-02-23T23:52:21.288Z,27.63
2023-02-23T23:54:52.696Z,21.48
2023-02-23T23:57:21.190Z,14.60
2023-02-23T23:59:51.583Z,17.23
